sensor_id;sensor_type;location;lat;lon;timestamp;P1;durP1;ratioP1;P2;durP2;ratioP2
41661;SDS011;27351;45.992;12.666;2022-12-22T00:01:38;39.83;;;22.20;;
41661;SDS011;27351;45.992;12.666;2022-12-22T00:04:22;39.58;;;23.08;;
41661;SDS011;27351;45.992;12.666;2022-12-22T00:07:06;36.28;;;22.08;;
41661;SDS011;27351;45.992;12.666;2022-12-22T00:09:51;43.22;;;24.13;;
41661;SDS011;27351;45.992;12.666;2022-12-22T00:12:35;43.33;;;23.80;;
41661;SDS011;27351;45.992;12.666;2022-12-22T00:15:19;40.27;;;23.50;;
41661;SDS011;27351;45.992;12.666;2022-12-22T00:18:04;44.20;;;25.50;;
41661;SDS011;27351;45.992;12.666;2022-12-22T00:20:48;38.75;;;24.55;;
41661;SDS011;27351;45.992;12.666;2022-12-22T00:23:32;43.05;;;22.90;;
41661;SDS011;27351;45.992;12.666;2022-12-22T00:26:16;43.60;;;24.13;;
41661;SDS011;27351;45.992;12.666;2022-12-22T00:29:00;42.33;;;24.10;;
41661;SDS011;27351;45.992;12.666;2022-12-22T00:31:44;38.95;;;22.73;;
41661;SDS011;27351;45.992;12.666;2022-12-22T00:34:29;38.88;;;22.85;;
41661;SDS011;27351;45.992;12.666;2022-12-22T00:37:15;44.20;;;24.92;;
41661;SDS011;27351;45.992;12.666;2022-12-22T00:39:59;39.85;;;23.10;;
41661;SDS011;27351;45.992;12.666;2022-12-22T00:42:43;40.30;;;23.58;;
41661;SDS011;27351;45.992;12.666;2022-12-22T00:45:28;39.67;;;25.53;;
41661;SDS011;27351;45.992;12.666;2022-12-22T00:48:18;43.60;;;24.75;;
41661;SDS011;27351;45.992;12.666;2022-12-22T00:51:03;47.00;;;25.80;;
41661;SDS011;27351;45.992;12.666;2022-12-22T00:53:48;43.00;;;24.60;;
41661;SDS011;27351;45.992;12.666;2022-12-22T00:56:31;45.15;;;24.38;;
41661;SDS011;27351;45.992;12.666;2022-12-22T00:59:16;42.25;;;24.00;;
41661;SDS011;27351;45.992;12.666;2022-12-22T01:01:59;43.97;;;24.45;;
41661;SDS011;27351;45.992;12.666;2022-12-22T01:04:43;47.08;;;25.73;;
41661;SDS011;27351;45.992;12.666;2022-12-22T01:07:27;45.05;;;25.83;;
41661;SDS011;27351;45.992;12.666;2022-12-22T01:10:12;43.03;;;24.45;;
41661;SDS011;27351;45.992;12.666;2022-12-22T01:12:57;41.00;;;24.23;;
41661;SDS011;27351;45.992;12.666;2022-12-22T01:15:41;43.22;;;24.52;;
41661;SDS011;27351;45.992;12.666;2022-12-22T01:18:25;42.92;;;25.80;;
41661;SDS011;27351;45.992;12.666;2022-12-22T01:21:09;45.85;;;25.23;;
41661;SDS011;27351;45.992;12.666;2022-12-22T01:23:53;44.30;;;26.23;;
41661;SDS011;27351;45.992;12.666;2022-12-22T01:26:37;45.53;;;25.95;;
41661;SDS011;27351;45.992;12.666;2022-12-22T01:29:21;43.75;;;24.40;;
41661;SDS011;27351;45.992;12.666;2022-12-22T01:32:07;47.58;;;25.92;;
41661;SDS011;27351;45.992;12.666;2022-12-22T01:34:52;44.28;;;25.70;;
41661;SDS011;27351;45.992;12.666;2022-12-22T01:37:35;41.30;;;23.55;;
41661;SDS011;27351;45.992;12.666;2022-12-22T01:40:21;45.63;;;24.17;;
41661;SDS011;27351;45.992;12.666;2022-12-22T01:43:19;44.10;;;24.90;;
41661;SDS011;27351;45.992;12.666;2022-12-22T01:52:05;42.78;;;23.50;;
41661;SDS011;27351;45.992;12.666;2022-12-22T01:54:50;41.95;;;23.77;;
41661;SDS011;27351;45.992;12.666;2022-12-22T01:57:35;42.05;;;25.02;;
41661;SDS011;27351;45.992;12.666;2022-12-22T02:00:20;42.88;;;23.77;;
41661;SDS011;27351;45.992;12.666;2022-12-22T02:03:13;42.47;;;24.00;;
41661;SDS011;27351;45.992;12.666;2022-12-22T02:06:22;40.92;;;23.73;;
41661;SDS011;27351;45.992;12.666;2022-12-22T02:14:47;44.22;;;24.25;;
41661;SDS011;27351;45.992;12.666;2022-12-22T02:17:35;40.75;;;21.95;;
41661;SDS011;27351;45.992;12.666;2022-12-22T02:20:40;40.58;;;23.52;;
41661;SDS011;27351;45.992;12.666;2022-12-22T02:23:38;40.72;;;23.67;;
41661;SDS011;27351;45.992;12.666;2022-12-22T02:26:27;38.88;;;23.17;;
41661;SDS011;27351;45.992;12.666;2022-12-22T02:29:12;43.17;;;23.98;;
41661;SDS011;27351;45.992;12.666;2022-12-22T02:31:58;40.22;;;23.38;;
41661;SDS011;27351;45.992;12.666;2022-12-22T02:35:00;40.58;;;21.88;;
41661;SDS011;27351;45.992;12.666;2022-12-22T02:37:58;44.20;;;23.77;;
41661;SDS011;27351;45.992;12.666;2022-12-22T02:40:50;40.80;;;21.52;;
41661;SDS011;27351;45.992;12.666;2022-12-22T02:46:56;41.95;;;23.02;;
41661;SDS011;27351;45.992;12.666;2022-12-22T02:49:53;40.85;;;22.67;;
41661;SDS011;27351;45.992;12.666;2022-12-22T02:52:38;40.47;;;23.33;;
41661;SDS011;27351;45.992;12.666;2022-12-22T02:55:23;39.78;;;22.05;;
41661;SDS011;27351;45.992;12.666;2022-12-22T02:58:10;42.97;;;23.83;;
41661;SDS011;27351;45.992;12.666;2022-12-22T03:00:54;42.08;;;22.23;;
41661;SDS011;27351;45.992;12.666;2022-12-22T03:03:38;43.72;;;22.58;;
41661;SDS011;27351;45.992;12.666;2022-12-22T03:06:23;35.03;;;20.77;;
41661;SDS011;27351;45.992;12.666;2022-12-22T03:09:06;38.60;;;21.08;;
41661;SDS011;27351;45.992;12.666;2022-12-22T03:11:51;44.40;;;22.80;;
41661;SDS011;27351;45.992;12.666;2022-12-22T03:14:34;40.97;;;22.40;;
41661;SDS011;27351;45.992;12.666;2022-12-22T03:17:18;43.30;;;22.63;;
41661;SDS011;27351;45.992;12.666;2022-12-22T03:20:02;41.50;;;22.58;;
41661;SDS011;27351;45.992;12.666;2022-12-22T03:22:47;35.78;;;20.67;;
41661;SDS011;27351;45.992;12.666;2022-12-22T03:25:30;42.63;;;23.10;;
41661;SDS011;27351;45.992;12.666;2022-12-22T03:28:14;42.97;;;21.83;;
41661;SDS011;27351;45.992;12.666;2022-12-22T03:30:40;43.97;;;22.50;;
41661;SDS011;27351;45.992;12.666;2022-12-22T03:33:06;37.17;;;23.30;;
41661;SDS011;27351;45.992;12.666;2022-12-22T03:35:31;38.17;;;22.08;;
41661;SDS011;27351;45.992;12.666;2022-12-22T03:37:57;38.72;;;22.55;;
41661;SDS011;27351;45.992;12.666;2022-12-22T03:40:30;37.85;;;23.77;;
41661;SDS011;27351;45.992;12.666;2022-12-22T03:42:56;40.55;;;24.23;;
41661;SDS011;27351;45.992;12.666;2022-12-22T03:45:40;40.67;;;24.33;;
41661;SDS011;27351;45.992;12.666;2022-12-22T03:48:24;39.45;;;24.58;;
41661;SDS011;27351;45.992;12.666;2022-12-22T03:50:50;43.70;;;25.00;;
41661;SDS011;27351;45.992;12.666;2022-12-22T03:53:15;43.83;;;25.30;;
41661;SDS011;27351;45.992;12.666;2022-12-22T03:55:41;41.80;;;24.53;;
41661;SDS011;27351;45.992;12.666;2022-12-22T03:58:06;41.93;;;24.57;;
41661;SDS011;27351;45.992;12.666;2022-12-22T04:00:32;41.20;;;24.40;;
41661;SDS011;27351;45.992;12.666;2022-12-22T04:02:57;40.17;;;24.67;;
41661;SDS011;27351;45.992;12.666;2022-12-22T04:05:23;40.35;;;23.95;;
41661;SDS011;27351;45.992;12.666;2022-12-22T04:07:49;42.45;;;25.05;;
41661;SDS011;27351;45.992;12.666;2022-12-22T04:10:14;42.40;;;25.33;;
41661;SDS011;27351;45.992;12.666;2022-12-22T04:12:59;39.22;;;24.70;;
41661;SDS011;27351;45.992;12.666;2022-12-22T04:15:28;40.67;;;23.95;;
41661;SDS011;27351;45.992;12.666;2022-12-22T04:17:54;42.28;;;23.77;;
41661;SDS011;27351;45.992;12.666;2022-12-22T04:20:21;41.17;;;24.93;;
41661;SDS011;27351;45.992;12.666;2022-12-22T04:22:46;37.15;;;23.50;;
41661;SDS011;27351;45.992;12.666;2022-12-22T04:25:12;36.97;;;23.23;;
41661;SDS011;27351;45.992;12.666;2022-12-22T04:27:38;42.57;;;25.00;;
41661;SDS011;27351;45.992;12.666;2022-12-22T04:30:04;38.53;;;23.27;;
41661;SDS011;27351;45.992;12.666;2022-12-22T04:32:30;40.65;;;24.85;;
41661;SDS011;27351;45.992;12.666;2022-12-22T04:34:55;37.53;;;23.00;;
41661;SDS011;27351;45.992;12.666;2022-12-22T04:37:21;42.63;;;25.30;;
41661;SDS011;27351;45.992;12.666;2022-12-22T04:39:47;38.38;;;24.73;;
41661;SDS011;27351;45.992;12.666;2022-12-22T04:42:12;36.87;;;23.60;;
41661;SDS011;27351;45.992;12.666;2022-12-22T04:44:38;42.00;;;24.23;;
41661;SDS011;27351;45.992;12.666;2022-12-22T04:47:03;39.03;;;24.27;;
41661;SDS011;27351;45.992;12.666;2022-12-22T04:49:29;44.08;;;26.23;;
41661;SDS011;27351;45.992;12.666;2022-12-22T04:51:54;40.80;;;24.37;;
41661;SDS011;27351;45.992;12.666;2022-12-22T04:54:20;41.00;;;25.03;;
41661;SDS011;27351;45.992;12.666;2022-12-22T04:56:45;40.27;;;24.27;;
41661;SDS011;27351;45.992;12.666;2022-12-22T04:59:11;41.03;;;23.73;;
41661;SDS011;27351;45.992;12.666;2022-12-22T05:01:37;39.63;;;23.40;;
41661;SDS011;27351;45.992;12.666;2022-12-22T05:04:02;38.43;;;23.70;;
41661;SDS011;27351;45.992;12.666;2022-12-22T05:06:28;43.55;;;25.45;;
41661;SDS011;27351;45.992;12.666;2022-12-22T05:08:53;37.67;;;23.80;;
41661;SDS011;27351;45.992;12.666;2022-12-22T05:11:19;39.83;;;23.73;;
41661;SDS011;27351;45.992;12.666;2022-12-22T05:13:45;40.25;;;24.17;;
41661;SDS011;27351;45.992;12.666;2022-12-22T05:16:11;36.08;;;22.73;;
41661;SDS011;27351;45.992;12.666;2022-12-22T05:18:37;37.78;;;23.42;;
41661;SDS011;27351;45.992;12.666;2022-12-22T05:21:08;40.70;;;24.40;;
41661;SDS011;27351;45.992;12.666;2022-12-22T05:23:34;41.37;;;24.37;;
41661;SDS011;27351;45.992;12.666;2022-12-22T05:25:59;38.92;;;22.73;;
41661;SDS011;27351;45.992;12.666;2022-12-22T05:28:25;38.03;;;22.33;;
41661;SDS011;27351;45.992;12.666;2022-12-22T05:30:51;38.28;;;22.55;;
41661;SDS011;27351;45.992;12.666;2022-12-22T05:33:17;38.08;;;23.50;;
41661;SDS011;27351;45.992;12.666;2022-12-22T05:35:43;34.92;;;22.02;;
41661;SDS011;27351;45.992;12.666;2022-12-22T05:38:08;36.70;;;23.17;;
41661;SDS011;27351;45.992;12.666;2022-12-22T05:40:34;39.30;;;23.50;;
41661;SDS011;27351;45.992;12.666;2022-12-22T05:43:00;39.70;;;23.87;;
41661;SDS011;27351;45.992;12.666;2022-12-22T05:45:25;38.00;;;22.73;;
41661;SDS011;27351;45.992;12.666;2022-12-22T05:47:51;37.10;;;21.48;;
41661;SDS011;27351;45.992;12.666;2022-12-22T05:50:21;35.87;;;22.00;;
41661;SDS011;27351;45.992;12.666;2022-12-22T05:52:56;40.33;;;23.17;;
41661;SDS011;27351;45.992;12.666;2022-12-22T05:55:22;36.58;;;21.80;;
41661;SDS011;27351;45.992;12.666;2022-12-22T05:57:48;40.67;;;23.30;;
41661;SDS011;27351;45.992;12.666;2022-12-22T06:00:14;40.97;;;23.90;;
41661;SDS011;27351;45.992;12.666;2022-12-22T06:02:40;40.08;;;23.60;;
41661;SDS011;27351;45.992;12.666;2022-12-22T06:05:07;40.10;;;24.17;;
41661;SDS011;27351;45.992;12.666;2022-12-22T06:07:33;43.03;;;24.73;;
41661;SDS011;27351;45.992;12.666;2022-12-22T06:09:58;42.13;;;23.73;;
41661;SDS011;27351;45.992;12.666;2022-12-22T06:12:24;41.70;;;23.03;;
41661;SDS011;27351;45.992;12.666;2022-12-22T06:14:50;38.38;;;22.52;;
41661;SDS011;27351;45.992;12.666;2022-12-22T06:17:16;40.03;;;23.23;;
41661;SDS011;27351;45.992;12.666;2022-12-22T06:19:41;42.73;;;24.73;;
41661;SDS011;27351;45.992;12.666;2022-12-22T06:22:07;43.87;;;25.43;;
41661;SDS011;27351;45.992;12.666;2022-12-22T06:24:32;40.22;;;24.05;;
41661;SDS011;27351;45.992;12.666;2022-12-22T06:26:58;41.47;;;24.83;;
41661;SDS011;27351;45.992;12.666;2022-12-22T06:29:23;41.15;;;25.27;;
41661;SDS011;27351;45.992;12.666;2022-12-22T06:31:49;38.15;;;23.05;;
41661;SDS011;27351;45.992;12.666;2022-12-22T06:34:15;43.38;;;24.60;;
41661;SDS011;27351;45.992;12.666;2022-12-22T06:36:43;40.22;;;24.02;;
41661;SDS011;27351;45.992;12.666;2022-12-22T06:39:09;42.53;;;25.13;;
41661;SDS011;27351;45.992;12.666;2022-12-22T06:41:34;39.78;;;23.35;;
41661;SDS011;27351;45.992;12.666;2022-12-22T06:44:18;39.85;;;22.67;;
41661;SDS011;27351;45.992;12.666;2022-12-22T06:46:44;43.80;;;23.97;;
41661;SDS011;27351;45.992;12.666;2022-12-22T06:49:10;40.10;;;23.23;;
41661;SDS011;27351;45.992;12.666;2022-12-22T06:51:35;36.55;;;22.05;;
41661;SDS011;27351;45.992;12.666;2022-12-22T06:54:01;41.05;;;23.88;;
41661;SDS011;27351;45.992;12.666;2022-12-22T06:56:27;43.33;;;25.17;;
41661;SDS011;27351;45.992;12.666;2022-12-22T06:58:52;42.17;;;24.08;;
41661;SDS011;27351;45.992;12.666;2022-12-22T07:01:18;42.00;;;24.75;;
41661;SDS011;27351;45.992;12.666;2022-12-22T07:03:44;40.93;;;24.07;;
41661;SDS011;27351;45.992;12.666;2022-12-22T07:06:09;38.83;;;24.10;;
41661;SDS011;27351;45.992;12.666;2022-12-22T07:08:36;43.00;;;25.33;;
41661;SDS011;27351;45.992;12.666;2022-12-22T07:11:01;43.97;;;24.80;;
41661;SDS011;27351;45.992;12.666;2022-12-22T07:13:31;44.83;;;24.08;;
41661;SDS011;27351;45.992;12.666;2022-12-22T07:15:59;42.13;;;24.13;;
41661;SDS011;27351;45.992;12.666;2022-12-22T07:18:25;40.92;;;23.85;;
41661;SDS011;27351;45.992;12.666;2022-12-22T07:20:50;43.17;;;24.58;;
41661;SDS011;27351;45.992;12.666;2022-12-22T07:23:16;45.38;;;25.17;;
41661;SDS011;27351;45.992;12.666;2022-12-22T07:25:42;44.53;;;25.00;;
41661;SDS011;27351;45.992;12.666;2022-12-22T07:28:08;46.53;;;26.43;;
41661;SDS011;27351;45.992;12.666;2022-12-22T07:30:34;39.90;;;23.33;;
41661;SDS011;27351;45.992;12.666;2022-12-22T07:33:01;42.60;;;23.65;;
41661;SDS011;27351;45.992;12.666;2022-12-22T07:35:27;43.78;;;24.23;;
41661;SDS011;27351;45.992;12.666;2022-12-22T07:37:53;44.33;;;25.48;;
41661;SDS011;27351;45.992;12.666;2022-12-22T07:40:18;44.10;;;25.07;;
41661;SDS011;27351;45.992;12.666;2022-12-22T07:42:44;43.22;;;24.88;;
41661;SDS011;27351;45.992;12.666;2022-12-22T07:45:13;43.78;;;24.10;;
41661;SDS011;27351;45.992;12.666;2022-12-22T07:47:39;45.42;;;25.70;;
41661;SDS011;27351;45.992;12.666;2022-12-22T07:50:06;41.10;;;22.90;;
41661;SDS011;27351;45.992;12.666;2022-12-22T07:52:50;41.17;;;23.52;;
41661;SDS011;27351;45.992;12.666;2022-12-22T07:55:17;42.72;;;24.08;;
41661;SDS011;27351;45.992;12.666;2022-12-22T07:57:42;44.83;;;25.00;;
41661;SDS011;27351;45.992;12.666;2022-12-22T08:00:08;41.30;;;23.95;;
41661;SDS011;27351;45.992;12.666;2022-12-22T08:02:37;40.83;;;23.70;;
41661;SDS011;27351;45.992;12.666;2022-12-22T08:05:03;39.80;;;23.30;;
41661;SDS011;27351;45.992;12.666;2022-12-22T08:07:29;43.15;;;23.48;;
41661;SDS011;27351;45.992;12.666;2022-12-22T08:09:54;39.55;;;22.58;;
41661;SDS011;27351;45.992;12.666;2022-12-22T08:12:20;40.42;;;22.80;;
41661;SDS011;27351;45.992;12.666;2022-12-22T08:14:45;45.40;;;24.13;;
41661;SDS011;27351;45.992;12.666;2022-12-22T08:17:12;40.95;;;22.42;;
41661;SDS011;27351;45.992;12.666;2022-12-22T08:19:38;44.80;;;24.25;;
41661;SDS011;27351;45.992;12.666;2022-12-22T08:22:03;40.17;;;24.10;;
41661;SDS011;27351;45.992;12.666;2022-12-22T08:24:29;41.17;;;23.90;;
41661;SDS011;27351;45.992;12.666;2022-12-22T08:26:56;41.47;;;23.50;;
41661;SDS011;27351;45.992;12.666;2022-12-22T08:29:25;43.08;;;25.33;;
41661;SDS011;27351;45.992;12.666;2022-12-22T08:31:53;39.40;;;24.45;;
41661;SDS011;27351;45.992;12.666;2022-12-22T08:34:19;46.22;;;26.90;;
41661;SDS011;27351;45.992;12.666;2022-12-22T08:36:46;46.43;;;26.50;;
41661;SDS011;27351;45.992;12.666;2022-12-22T08:39:12;51.92;;;27.85;;
41661;SDS011;27351;45.992;12.666;2022-12-22T08:41:38;48.43;;;28.53;;
41661;SDS011;27351;45.992;12.666;2022-12-22T08:44:17;49.97;;;27.73;;
41661;SDS011;27351;45.992;12.666;2022-12-22T08:46:43;50.35;;;27.48;;
41661;SDS011;27351;45.992;12.666;2022-12-22T08:49:08;49.55;;;29.80;;
41661;SDS011;27351;45.992;12.666;2022-12-22T08:51:34;53.33;;;29.00;;
41661;SDS011;27351;45.992;12.666;2022-12-22T08:53:59;50.72;;;28.40;;
41661;SDS011;27351;45.992;12.666;2022-12-22T08:56:25;49.40;;;28.17;;
41661;SDS011;27351;45.992;12.666;2022-12-22T08:58:51;45.30;;;27.57;;
41661;SDS011;27351;45.992;12.666;2022-12-22T09:01:17;50.97;;;28.52;;
41661;SDS011;27351;45.992;12.666;2022-12-22T09:03:46;47.65;;;27.55;;
41661;SDS011;27351;45.992;12.666;2022-12-22T09:06:12;52.67;;;30.08;;
41661;SDS011;27351;45.992;12.666;2022-12-22T09:08:38;50.83;;;29.25;;
41661;SDS011;27351;45.992;12.666;2022-12-22T09:11:03;52.38;;;29.38;;
41661;SDS011;27351;45.992;12.666;2022-12-22T09:13:29;46.90;;;29.02;;
41661;SDS011;27351;45.992;12.666;2022-12-22T09:15:55;50.88;;;28.77;;
41661;SDS011;27351;45.992;12.666;2022-12-22T09:18:20;49.35;;;28.88;;
41661;SDS011;27351;45.992;12.666;2022-12-22T09:20:46;48.67;;;27.17;;
41661;SDS011;27351;45.992;12.666;2022-12-22T09:23:13;47.67;;;28.73;;
41661;SDS011;27351;45.992;12.666;2022-12-22T09:25:38;48.33;;;29.57;;
41661;SDS011;27351;45.992;12.666;2022-12-22T09:28:05;49.33;;;28.80;;
41661;SDS011;27351;45.992;12.666;2022-12-22T09:30:31;50.72;;;28.65;;
41661;SDS011;27351;45.992;12.666;2022-12-22T09:32:57;47.50;;;28.80;;
41661;SDS011;27351;45.992;12.666;2022-12-22T09:35:22;48.97;;;27.15;;
41661;SDS011;27351;45.992;12.666;2022-12-22T09:37:48;46.85;;;28.30;;
41661;SDS011;27351;45.992;12.666;2022-12-22T09:40:14;45.75;;;27.55;;
41661;SDS011;27351;45.992;12.666;2022-12-22T09:42:39;46.95;;;28.10;;
41661;SDS011;27351;45.992;12.666;2022-12-22T09:45:08;50.63;;;28.30;;
41661;SDS011;27351;45.992;12.666;2022-12-22T09:47:36;48.53;;;28.15;;
41661;SDS011;27351;45.992;12.666;2022-12-22T09:50:04;47.63;;;27.88;;
41661;SDS011;27351;45.992;12.666;2022-12-22T09:55:03;44.80;;;26.63;;
41661;SDS011;27351;45.992;12.666;2022-12-22T09:57:31;40.65;;;25.83;;
41661;SDS011;27351;45.992;12.666;2022-12-22T10:00:00;41.60;;;25.55;;
41661;SDS011;27351;45.992;12.666;2022-12-22T10:02:59;36.28;;;23.90;;
41661;SDS011;27351;45.992;12.666;2022-12-22T10:05:40;45.50;;;25.60;;
41661;SDS011;27351;45.992;12.666;2022-12-22T10:08:15;42.40;;;25.13;;
41661;SDS011;27351;45.992;12.666;2022-12-22T10:10:43;43.97;;;25.52;;
41661;SDS011;27351;45.992;12.666;2022-12-22T10:13:16;39.90;;;25.00;;
41661;SDS011;27351;45.992;12.666;2022-12-22T10:15:42;43.42;;;25.35;;
41661;SDS011;27351;45.992;12.666;2022-12-22T10:18:10;43.38;;;25.10;;
41661;SDS011;27351;45.992;12.666;2022-12-22T10:20:36;41.58;;;24.77;;
41661;SDS011;27351;45.992;12.666;2022-12-22T10:23:18;39.57;;;25.40;;
41661;SDS011;27351;45.992;12.666;2022-12-22T10:28:24;40.57;;;24.93;;
41661;SDS011;27351;45.992;12.666;2022-12-22T10:30:56;41.00;;;25.58;;
41661;SDS011;27351;45.992;12.666;2022-12-22T10:33:33;43.53;;;26.63;;
41661;SDS011;27351;45.992;12.666;2022-12-22T10:35:58;44.80;;;26.13;;
41661;SDS011;27351;45.992;12.666;2022-12-22T10:40:52;44.47;;;25.63;;
41661;SDS011;27351;45.992;12.666;2022-12-22T10:43:36;43.22;;;26.70;;
41661;SDS011;27351;45.992;12.666;2022-12-22T10:46:03;42.10;;;25.90;;
41661;SDS011;27351;45.992;12.666;2022-12-22T10:48:33;40.67;;;24.58;;
41661;SDS011;27351;45.992;12.666;2022-12-22T10:50:59;41.67;;;25.20;;
41661;SDS011;27351;45.992;12.666;2022-12-22T10:53:39;43.78;;;26.83;;
41661;SDS011;27351;45.992;12.666;2022-12-22T10:56:05;44.47;;;26.17;;
41661;SDS011;27351;45.992;12.666;2022-12-22T10:58:36;44.80;;;26.25;;
41661;SDS011;27351;45.992;12.666;2022-12-22T11:01:10;40.85;;;25.60;;
41661;SDS011;27351;45.992;12.666;2022-12-22T11:03:36;42.67;;;26.03;;
41661;SDS011;27351;45.992;12.666;2022-12-22T11:06:04;43.08;;;26.02;;
41661;SDS011;27351;45.992;12.666;2022-12-22T11:08:35;42.42;;;25.65;;
41661;SDS011;27351;45.992;12.666;2022-12-22T11:11:04;46.30;;;28.10;;
41661;SDS011;27351;45.992;12.666;2022-12-22T11:14:18;46.08;;;25.90;;
41661;SDS011;27351;45.992;12.666;2022-12-22T11:16:28;45.80;;;26.88;;
41661;SDS011;27351;45.992;12.666;2022-12-22T11:19:00;44.38;;;26.08;;
41661;SDS011;27351;45.992;12.666;2022-12-22T11:21:35;44.70;;;26.15;;
41661;SDS011;27351;45.992;12.666;2022-12-22T11:32:07;49.23;;;26.83;;
41661;SDS011;27351;45.992;12.666;2022-12-22T11:39:59;48.50;;;27.70;;
41661;SDS011;27351;45.992;12.666;2022-12-22T11:45:13;50.05;;;27.48;;
41661;SDS011;27351;45.992;12.666;2022-12-22T11:50:22;49.42;;;27.23;;
41661;SDS011;27351;45.992;12.666;2022-12-22T11:52:54;46.95;;;26.33;;
41661;SDS011;27351;45.992;12.666;2022-12-22T11:55:36;45.53;;;24.83;;
41661;SDS011;27351;45.992;12.666;2022-12-22T12:03:40;44.72;;;25.05;;
41661;SDS011;27351;45.992;12.666;2022-12-22T12:08:57;46.83;;;24.70;;
41661;SDS011;27351;45.992;12.666;2022-12-22T12:16:42;42.33;;;24.80;;
41661;SDS011;27351;45.992;12.666;2022-12-22T12:21:51;47.47;;;27.13;;
41661;SDS011;27351;45.992;12.666;2022-12-22T12:29:57;45.22;;;26.65;;
41661;SDS011;27351;45.992;12.666;2022-12-22T12:32:34;45.23;;;24.90;;
41661;SDS011;27351;45.992;12.666;2022-12-22T12:35:04;43.58;;;24.63;;
41661;SDS011;27351;45.992;12.666;2022-12-22T12:37:35;46.33;;;26.60;;
41661;SDS011;27351;45.992;12.666;2022-12-22T12:42:32;41.55;;;25.20;;
41661;SDS011;27351;45.992;12.666;2022-12-22T12:44:59;44.97;;;25.27;;
41661;SDS011;27351;45.992;12.666;2022-12-22T12:47:31;47.13;;;27.17;;
41661;SDS011;27351;45.992;12.666;2022-12-22T12:49:58;45.17;;;25.23;;
41661;SDS011;27351;45.992;12.666;2022-12-22T12:57:48;45.30;;;26.05;;
41661;SDS011;27351;45.992;12.666;2022-12-22T13:02:59;44.58;;;24.42;;
41661;SDS011;27351;45.992;12.666;2022-12-22T13:05:27;41.90;;;24.75;;
41661;SDS011;27351;45.992;12.666;2022-12-22T13:08:08;45.90;;;25.92;;
41661;SDS011;27351;45.992;12.666;2022-12-22T13:11:18;42.20;;;24.73;;
41661;SDS011;27351;45.992;12.666;2022-12-22T13:21:06;46.63;;;26.00;;
41661;SDS011;27351;45.992;12.666;2022-12-22T13:23:34;43.85;;;23.63;;
41661;SDS011;27351;45.992;12.666;2022-12-22T13:26:04;40.22;;;24.33;;
41661;SDS011;27351;45.992;12.666;2022-12-22T13:28:31;40.92;;;24.25;;
41661;SDS011;27351;45.992;12.666;2022-12-22T13:31:00;43.83;;;24.40;;
41661;SDS011;27351;45.992;12.666;2022-12-22T13:33:28;44.40;;;24.85;;
41661;SDS011;27351;45.992;12.666;2022-12-22T13:35:56;41.75;;;23.33;;
41661;SDS011;27351;45.992;12.666;2022-12-22T13:38:27;42.63;;;24.58;;
41661;SDS011;27351;45.992;12.666;2022-12-22T13:40:55;44.78;;;23.73;;
41661;SDS011;27351;45.992;12.666;2022-12-22T13:43:21;41.80;;;23.63;;
41661;SDS011;27351;45.992;12.666;2022-12-22T13:48:16;44.08;;;24.77;;
41661;SDS011;27351;45.992;12.666;2022-12-22T13:50:52;48.47;;;25.48;;
41661;SDS011;27351;45.992;12.666;2022-12-22T13:53:33;43.92;;;24.10;;
41661;SDS011;27351;45.992;12.666;2022-12-22T13:55:59;45.97;;;24.83;;
41661;SDS011;27351;45.992;12.666;2022-12-22T13:58:35;42.47;;;24.40;;
41661;SDS011;27351;45.992;12.666;2022-12-22T14:03:38;41.33;;;24.30;;
41661;SDS011;27351;45.992;12.666;2022-12-22T14:08:48;42.35;;;23.77;;
41661;SDS011;27351;45.992;12.666;2022-12-22T14:11:14;41.78;;;23.73;;
41661;SDS011;27351;45.992;12.666;2022-12-22T14:13:40;41.75;;;24.27;;
41661;SDS011;27351;45.992;12.666;2022-12-22T14:16:05;44.20;;;24.20;;
41661;SDS011;27351;45.992;12.666;2022-12-22T14:18:32;43.45;;;23.25;;
41661;SDS011;27351;45.992;12.666;2022-12-22T14:20:58;41.85;;;23.27;;
41661;SDS011;27351;45.992;12.666;2022-12-22T14:23:28;39.03;;;22.77;;
41661;SDS011;27351;45.992;12.666;2022-12-22T14:25:54;37.40;;;21.23;;
41661;SDS011;27351;45.992;12.666;2022-12-22T14:28:24;39.45;;;19.55;;
41661;SDS011;27351;45.992;12.666;2022-12-22T14:30:56;36.78;;;19.02;;
41661;SDS011;27351;45.992;12.666;2022-12-22T14:35:50;37.35;;;19.98;;
41661;SDS011;27351;45.992;12.666;2022-12-22T14:38:23;39.47;;;20.20;;
41661;SDS011;27351;45.992;12.666;2022-12-22T14:40:50;41.20;;;20.98;;
41661;SDS011;27351;45.992;12.666;2022-12-22T14:45:41;37.73;;;20.40;;
41661;SDS011;27351;45.992;12.666;2022-12-22T14:48:08;40.60;;;21.30;;
41661;SDS011;27351;45.992;12.666;2022-12-22T14:50:34;40.03;;;20.65;;
41661;SDS011;27351;45.992;12.666;2022-12-22T14:53:01;37.50;;;20.30;;
41661;SDS011;27351;45.992;12.666;2022-12-22T14:55:39;40.75;;;21.38;;
41661;SDS011;27351;45.992;12.666;2022-12-22T14:58:11;39.40;;;20.07;;
41661;SDS011;27351;45.992;12.666;2022-12-22T15:00:38;44.13;;;21.08;;
41661;SDS011;27351;45.992;12.666;2022-12-22T15:05:49;40.57;;;18.93;;
41661;SDS011;27351;45.992;12.666;2022-12-22T15:11:00;39.17;;;20.02;;
41661;SDS011;27351;45.992;12.666;2022-12-22T15:13:25;35.35;;;18.80;;
41661;SDS011;27351;45.992;12.666;2022-12-22T15:15:51;41.13;;;19.25;;
41661;SDS011;27351;45.992;12.666;2022-12-22T15:18:17;34.03;;;17.27;;
41661;SDS011;27351;45.992;12.666;2022-12-22T15:20:46;39.08;;;18.67;;
41661;SDS011;27351;45.992;12.666;2022-12-22T15:23:12;35.05;;;18.38;;
41661;SDS011;27351;45.992;12.666;2022-12-22T15:25:39;33.28;;;17.92;;
41661;SDS011;27351;45.992;12.666;2022-12-22T15:28:04;37.25;;;18.42;;
41661;SDS011;27351;45.992;12.666;2022-12-22T15:30:30;36.35;;;18.45;;
41661;SDS011;27351;45.992;12.666;2022-12-22T15:32:55;33.35;;;18.58;;
41661;SDS011;27351;45.992;12.666;2022-12-22T15:35:27;36.53;;;18.33;;
41661;SDS011;27351;45.992;12.666;2022-12-22T15:37:53;37.42;;;17.85;;
41661;SDS011;27351;45.992;12.666;2022-12-22T15:40:20;35.45;;;18.77;;
41661;SDS011;27351;45.992;12.666;2022-12-22T15:42:46;36.23;;;17.23;;
41661;SDS011;27351;45.992;12.666;2022-12-22T15:45:12;37.92;;;19.63;;
41661;SDS011;27351;45.992;12.666;2022-12-22T15:47:39;33.70;;;18.45;;
41661;SDS011;27351;45.992;12.666;2022-12-22T15:50:06;34.40;;;17.85;;
41661;SDS011;27351;45.992;12.666;2022-12-22T15:52:32;34.40;;;18.42;;
41661;SDS011;27351;45.992;12.666;2022-12-22T15:54:58;32.47;;;17.57;;
41661;SDS011;27351;45.992;12.666;2022-12-22T15:57:24;32.75;;;17.50;;
41661;SDS011;27351;45.992;12.666;2022-12-22T15:59:49;38.08;;;19.58;;
41661;SDS011;27351;45.992;12.666;2022-12-22T16:02:15;37.13;;;19.08;;
41661;SDS011;27351;45.992;12.666;2022-12-22T16:04:41;40.00;;;19.55;;
41661;SDS011;27351;45.992;12.666;2022-12-22T16:07:08;33.72;;;18.23;;
41661;SDS011;27351;45.992;12.666;2022-12-22T16:09:38;36.78;;;19.58;;
41661;SDS011;27351;45.992;12.666;2022-12-22T16:12:11;38.13;;;20.15;;
41661;SDS011;27351;45.992;12.666;2022-12-22T16:14:38;36.08;;;17.77;;